Time;durP1;ratioP1;P1;durP2;ratioP2;P2;SDS_P1;SDS_P2;PMS_P1;PMS_P2;Temp;Humidity;BMP_temperature;BMP_pressure;BME280_temperature;BME280_humidity;BME280_pressure;Samples;Min_cycle;Max_cycle;Signal;HPM_P1;HPM_P2
2023/05/14 00:01:59;;;;;;;;;;;14.40;60.10;;;9.92;100.00;95407.34;5012892;28;19955;-49
2023/05/14 00:04:25;;;;;;;;;;;14.50;60.20;;;9.92;100.00;95415.34;5011064;28;19909;-54
2023/05/14 00:06:50;;;;;;;;;;;14.40;60.10;;;9.90;100.00;95411.34;5012803;28;19959;-50
2023/05/14 00:09:16;;;;;;;;;;;14.40;60.20;;;9.90;100.00;95412.16;5011435;28;20364;-48
2023/05/14 00:11:42;;;;;;;;;;;14.40;60.10;;;9.91;100.00;95411.09;5012906;28;19911;-48
2023/05/14 00:14:08;;;;;;;;;;;14.40;60.10;;;9.85;100.00;95406.81;5012753;28;19916;-50
2023/05/14 00:16:34;;;;;;;;;;;14.40;60.20;;;9.78;100.00;95408.13;5011663;28;19913;-49
2023/05/14 00:18:59;;;;;;;;;;;14.40;60.10;;;9.79;100.00;95410.53;5012358;28;19913;-49
2023/05/14 00:21:25;;;;;;;;;;;14.40;60.10;;;9.81;100.00;95405.75;5011486;28;19913;-55
2023/05/14 00:23:51;;;;;;;;;;;14.40;60.20;;;9.78;100.00;95403.63;5012622;28;19909;-51
2023/05/14 00:26:16;;;;;;;;;;;14.40;60.20;;;9.78;100.00;95397.47;5012364;28;19925;-55
2023/05/14 00:28:42;;;;;;;;;;;14.30;60.10;;;9.77;100.00;95407.31;5011806;28;19913;-49
2023/05/14 00:31:08;;;;;;;;;;;14.30;60.10;;;9.76;100.00;95396.97;5012476;28;19916;-52
2023/05/14 00:33:34;;;;;;;;;;;14.30;60.20;;;9.75;100.00;95395.38;5011080;28;19912;-56
2023/05/14 00:36:00;;;;;;;;;;;14.30;60.20;;;9.71;100.00;95393.25;5012370;28;19916;-55
2023/05/14 00:38:27;;;;;;;;;;;14.30;60.20;;;9.63;100.00;95390.28;5011599;28;19959;-49
2023/05/14 00:40:53;;;;;;;;;;;14.20;60.20;;;9.60;100.00;95393.47;5001146;28;19956;-50
2023/05/14 00:43:21;;;;;;;;;;;14.20;60.30;;;9.61;100.00;95385.22;5012247;28;20007;-54
2023/05/14 00:45:53;;;;;;;;;;;14.20;60.40;;;9.60;100.00;95388.94;5011116;28;19909;-50
2023/05/14 00:48:23;;;;;;;;;;;14.10;60.40;;;9.56;100.00;95381.75;4994923;28;19920;-49
2023/05/14 00:50:50;;;;;;;;;;;14.10;60.40;;;9.53;100.00;95387.59;5011160;28;20422;-54
2023/05/14 00:53:19;;;;;;;;;;;14.00;60.40;;;9.53;100.00;95387.59;5012103;28;19966;-56
2023/05/14 00:55:47;;;;;;;;;;;14.00;60.60;;;9.49;100.00;95393.47;5012293;28;19909;-54
2023/05/14 00:58:14;;;;;;;;;;;14.00;60.60;;;9.45;100.00;95388.91;4993814;28;19996;-54
2023/05/14 01:00:41;;;;;;;;;;;13.90;60.70;;;9.39;100.00;95387.28;5011571;28;19913;-51
2023/05/14 01:03:07;;;;;;;;;;;13.90;60.70;;;9.40;100.00;95375.59;5021287;28;19909;-50
2023/05/14 01:05:48;;;;;;;;;;;13.90;60.80;;;9.36;100.00;95380.63;5027909;28;19931;-49
2023/05/14 01:08:54;;;;;;;;;;;13.90;60.80;;;9.32;100.00;95368.94;5015366;28;19908;-49
2023/05/14 01:11:31;;;;;;;;;;;13.80;60.80;;;9.33;100.00;95373.19;4987689;28;19924;-53
2023/05/14 01:14:37;;;;;;;;;;;13.80;60.90;;;9.29;100.00;95373.97;5009025;28;19909;-49
2023/05/14 01:17:05;;;;;;;;;;;13.70;60.90;;;9.26;100.00;95370.78;5005062;28;19916;-49
2023/05/14 01:19:42;;;;;;;;;;;13.70;61.00;;;9.27;100.00;95374.22;5015607;28;19920;-49
2023/05/14 01:22:09;;;;;;;;;;;13.70;61.10;;;9.20;100.00;95373.69;5010718;28;19920;-52
2023/05/14 01:24:34;;;;;;;;;;;13.70;61.20;;;9.18;100.00;95378.44;5015770;28;20466;-49
2023/05/14 01:27:28;;;;;;;;;;;13.70;61.30;;;9.16;100.00;95369.94;5015007;28;19999;-49
2023/05/14 01:30:39;;;;;;;;;;;13.60;61.20;;;9.16;100.00;95365.44;4981309;28;19963;-49
2023/05/14 01:33:15;;;;;;;;;;;13.60;61.30;;;9.14;100.00;95366.75;4983300;28;20342;-52
2023/05/14 01:35:42;;;;;;;;;;;13.60;61.30;;;9.13;100.00;95367.81;5030353;28;19909;-52
2023/05/14 01:38:12;;;;;;;;;;;13.60;61.40;;;9.14;100.00;95367.53;5030962;28;19909;-54
2023/05/14 01:40:39;;;;;;;;;;;13.60;61.50;;;9.14;100.00;95370.19;5030371;28;19920;-50
2023/05/14 01:43:05;;;;;;;;;;;13.60;61.60;;;9.12;100.00;95364.38;5035040;28;19916;-53
2023/05/14 01:45:35;;;;;;;;;;;13.60;61.60;;;9.13;100.00;95371.25;5033336;28;19915;-53
2023/05/14 01:48:01;;;;;;;;;;;13.60;61.60;;;9.12;100.00;95368.84;5018039;28;19909;-51
2023/05/14 01:50:26;;;;;;;;;;;13.50;61.50;;;9.13;100.00;95367.81;5014730;28;20442;-50
2023/05/14 01:52:55;;;;;;;;;;;13.50;61.60;;;9.11;100.00;95375.22;5024708;28;19982;-51
2023/05/14 01:55:24;;;;;;;;;;;13.60;61.60;;;9.13;100.00;95373.91;5035159;28;19915;-50
2023/05/14 01:57:51;;;;;;;;;;;13.60;61.60;;;9.12;100.00;95375.00;5031856;28;20465;-50
2023/05/14 02:00:17;;;;;;;;;;;13.60;61.60;;;9.12;100.00;95380.31;5033037;28;20011;-50
2023/05/14 02:02:43;;;;;;;;;;;13.50;61.60;;;9.11;100.00;95368.06;5030331;28;19916;-50
2023/05/14 02:05:10;;;;;;;;;;;13.50;61.60;;;9.09;100.00;95372.03;5019065;28;19909;-50
2023/05/14 02:07:36;;;;;;;;;;;13.50;61.60;;;9.07;100.00;95364.31;5035178;28;20003;-50
2023/05/14 02:10:02;;;;;;;;;;;13.50;61.50;;;9.05;100.00;95369.09;5021258;28;20332;-51
2023/05/14 02:12:28;;;;;;;;;;;13.50;61.50;;;8.99;100.00;95357.66;5029024;28;20359;-53
2023/05/14 02:14:54;;;;;;;;;;;13.50;61.60;;;8.96;100.00;95355.53;5030326;28;20006;-51
2023/05/14 02:17:20;;;;;;;;;;;13.40;61.50;;;8.90;100.00;95353.09;5017050;28;19908;-49
2023/05/14 02:19:46;;;;;;;;;;;13.40;61.50;;;8.86;100.00;95360.78;5034911;28;19956;-48
2023/05/14 02:22:12;;;;;;;;;;;13.40;61.50;;;8.79;100.00;95360.22;5025261;28;19913;-49
2023/05/14 02:24:38;;;;;;;;;;;13.30;61.50;;;8.69;100.00;95350.34;5034353;28;20276;-52
2023/05/14 02:27:05;;;;;;;;;;;13.30;61.60;;;8.67;100.00;95352.44;5028497;28;19916;-51
2023/05/14 02:29:30;;;;;;;;;;;13.20;61.70;;;8.68;100.00;95347.94;5029514;28;19916;-52
2023/05/14 02:31:56;;;;;;;;;;;13.20;61.70;;;8.65;100.00;95351.94;5023153;28;19908;-52
2023/05/14 02:34:23;;;;;;;;;;;13.10;61.70;;;8.60;100.00;95354.53;5030591;28;20278;-50
2023/05/14 02:36:49;;;;;;;;;;;13.10;61.70;;;8.52;100.00;95353.19;5034410;28;20268;-50
2023/05/14 02:39:15;;;;;;;;;;;13.10;61.80;;;8.46;100.00;95354.22;5014542;28;19963;-49
2023/05/14 02:41:41;;;;;;;;;;;13.00;62.60;;;8.35;100.00;95345.34;5034478;28;19916;-51
2023/05/14 02:44:06;;;;;;;;;;;13.00;61.80;;;8.32;100.00;95345.06;5034159;28;19909;-49
2023/05/14 02:46:32;;;;;;;;;;;12.90;61.80;;;8.27;100.00;95345.84;5023280;28;19913;-49
2023/05/14 02:48:58;;;;;;;;;;;12.80;61.80;;;8.22;100.00;95339.69;5033968;28;20362;-48
2023/05/14 02:51:24;;;;;;;;;;;12.80;61.90;;;8.16;100.00;95338.84;5032496;28;19908;-48
2023/05/14 02:53:49;;;;;;;;;;;12.70;61.90;;;8.09;100.00;95339.06;5033961;28;19908;-48
2023/05/14 02:56:15;;;;;;;;;;;12.60;62.00;;;8.02;100.00;95341.16;5034161;28;20501;-50
2023/05/14 02:58:41;;;;;;;;;;;12.60;62.10;;;7.97;100.00;95338.44;5028390;28;20325;-48
2023/05/14 03:01:07;;;;;;;;;;;12.60;62.30;;;7.94;100.00;95338.94;5028460;28;19913;-49
2023/05/14 03:03:35;;;;;;;;;;;12.50;62.50;;;7.90;100.00;95337.88;5023810;28;19909;-48
2023/05/14 03:06:01;;;;;;;;;;;12.50;62.40;;;7.90;100.00;95345.81;5012053;28;20019;-49
2023/05/14 03:08:26;;;;;;;;;;;12.50;62.40;;;7.87;100.00;95338.38;5032559;28;20426;-49
2023/05/14 03:10:52;;;;;;;;;;;12.50;62.50;;;7.85;100.00;95335.94;5030434;28;19908;-48
2023/05/14 03:13:19;;;;;;;;;;;12.40;62.50;;;7.87;100.00;95338.38;5033890;28;19916;-51
2023/05/14 03:15:46;;;;;;;;;;;12.40;62.60;;;7.89;100.00;95338.91;5016766;28;19912;-49
2023/05/14 03:18:12;;;;;;;;;;;12.40;62.60;;;7.89;100.00;95338.91;5033394;28;19957;-49
2023/05/14 03:20:38;;;;;;;;;;;12.40;62.70;;;7.90;100.00;95340.53;5028557;28;19978;-53
2023/05/14 03:23:04;;;;;;;;;;;12.40;62.80;;;7.91;100.00;95336.00;5013892;28;19913;-53
2023/05/14 03:25:30;;;;;;;;;;;12.40;62.80;;;7.93;100.00;95333.88;5033320;28;19939;-55
2023/05/14 03:27:56;;;;;;;;;;;12.50;62.90;;;7.96;100.00;95336.84;5028740;28;19909;-52
2023/05/14 03:30:22;;;;;;;;;;;12.50;63.10;;;7.97;100.00;95335.78;5030322;28;19908;-55
2023/05/14 03:32:48;;;;;;;;;;;12.50;63.00;;;7.98;100.00;95326.78;5010529;28;19917;-51
2023/05/14 03:35:13;;;;;;;;;;;12.50;63.90;;;8.01;100.00;95331.56;5029306;28;19913;-51
2023/05/14 03:37:39;;;;;;;;;;;12.60;63.10;;;8.03;100.00;95331.34;5033348;28;19915;-50
2023/05/14 03:40:06;;;;;;;;;;;12.60;63.20;;;8.05;100.00;95331.84;5017456;28;19913;-53
2023/05/14 03:42:32;;;;;;;;;;;12.60;63.20;;;8.06;100.00;95328.97;5013386;28;19916;-52
2023/05/14 03:44:58;;;;;;;;;;;12.60;63.20;;;8.14;100.00;95330.34;5011778;28;19913;-51
2023/05/14 03:47:23;;;;;;;;;;;12.70;63.30;;;8.20;100.00;95328.53;5012998;28;19932;-53
2023/05/14 03:49:49;;;;;;;;;;;12.70;63.40;;;8.23;100.00;95334.13;5012982;28;20026;-49
2023/05/14 03:52:15;;;;;;;;;;;12.70;63.40;;;8.27;100.00;95321.13;5012017;28;20047;-55
2023/05/14 03:54:49;;;;;;;;;;;12.80;63.50;;;8.33;100.00;95328.06;5047129;28;19917;-53
2023/05/14 03:57:15;;;;;;;;;;;12.80;63.50;;;8.35;100.00;95325.97;5013796;28;19914;-55
2023/05/14 03:59:41;;;;;;;;;;;12.80;63.60;;;8.39;100.00;95324.41;5024031;28;19919;-51
2023/05/14 04:02:07;;;;;;;;;;;12.90;63.70;;;8.45;100.00;95328.69;5020336;28;19966;-53
2023/05/14 04:04:32;;;;;;;;;;;12.90;63.70;;;8.48;100.00;95325.53;5011381;28;19913;-52
2023/05/14 04:06:58;;;;;;;;;;;12.90;63.70;;;8.52;100.00;95329.28;5014504;28;20402;-48
2023/05/14 04:09:24;;;;;;;;;;;13.00;64.40;;;8.56;100.00;95333.03;5013174;28;19948;-52
2023/05/14 04:11:50;;;;;;;;;;;13.00;64.40;;;8.60;100.00;95337.81;5029419;28;19913;-50
2023/05/14 04:14:15;;;;;;;;;;;13.10;63.70;;;8.66;100.00;95331.47;5028998;28;19913;-50
2023/05/14 04:16:41;;;;;;;;;;;13.10;63.80;;;8.70;100.00;95324.59;5017280;28;20386;-54
2023/05/14 04:19:07;;;;;;;;;;;13.20;63.70;;;8.74;100.00;95331.78;5028943;28;19963;-50
2023/05/14 04:21:32;;;;;;;;;;;13.20;63.60;;;8.75;100.00;95330.72;5026384;28;19909;-52
2023/05/14 04:23:58;;;;;;;;;;;13.30;63.60;;;8.77;100.00;95328.63;5029210;28;19909;-50
2023/05/14 04:26:24;;;;;;;;;;;13.40;63.60;;;8.79;100.00;95337.13;5028883;28;20394;-48
2023/05/14 04:28:50;;;;;;;;;;;13.40;63.50;;;8.84;100.00;95325.72;5023550;28;19908;-47
2023/05/14 04:31:15;;;;;;;;;;;13.50;63.50;;;8.88;100.00;95331.31;5019157;28;20354;-48
2023/05/14 04:33:41;;;;;;;;;;;13.50;63.30;;;8.87;100.00;95335.84;5002032;28;19921;-50
2023/05/14 04:36:07;;;;;;;;;;;13.60;63.40;;;8.90;100.00;95337.97;5028387;28;20000;-48
2023/05/14 04:38:33;;;;;;;;;;;13.60;63.30;;;8.93;100.00;95337.44;5026759;28;19943;-53
2023/05/14 04:40:59;;;;;;;;;;;13.60;63.20;;;8.98;100.00;95341.97;5007972;28;19916;-47
2023/05/14 04:43:25;;;;;;;;;;;13.70;63.30;;;9.01;100.00;95336.94;5028558;28;19917;-49
2023/05/14 04:45:51;;;;;;;;;;;13.70;63.20;;;9.06;100.00;95333.50;5024960;28;20379;-50
2023/05/14 04:48:17;;;;;;;;;;;13.70;63.20;;;9.08;100.00;95331.38;5028634;28;19917;-49
2023/05/14 04:50:45;;;;;;;;;;;13.80;63.20;;;9.10;100.00;95342.56;5022819;28;19998;-48
2023/05/14 04:53:11;;;;;;;;;;;13.80;63.10;;;9.12;100.00;95335.13;5028208;28;19954;-47
2023/05/14 04:55:37;;;;;;;;;;;13.90;63.10;;;9.20;100.00;95331.16;5048441;28;20383;-50
2023/05/14 04:58:02;;;;;;;;;;;13.90;63.10;;;9.27;100.00;95337.00;5036675;28;19908;-49
2023/05/14 05:00:29;;;;;;;;;;;14.00;63.20;;;9.33;100.00;95330.66;5032718;28;20284;-52
2023/05/14 05:02:55;;;;;;;;;;;14.00;63.10;;;9.42;100.00;95339.72;5037884;28;19985;-54
2023/05/14 05:05:21;;;;;;;;;;;14.10;63.10;;;9.45;100.00;95344.50;5025070;28;19947;-48
2023/05/14 05:07:46;;;;;;;;;;;14.20;63.00;;;9.49;100.00;95344.78;5030994;28;19916;-50
2023/05/14 05:10:12;;;;;;;;;;;14.30;63.00;;;9.52;100.00;95352.22;5024172;28;19916;-48
2023/05/14 05:12:38;;;;;;;;;;;14.30;62.90;;;9.58;100.00;95339.75;5034387;28;20376;-48
2023/05/14 05:15:05;;;;;;;;;;;14.40;62.80;;;9.66;100.00;95339.25;5028439;28;19913;-50
2023/05/14 05:17:31;;;;;;;;;;;14.50;62.80;;;9.69;100.00;95346.69;5030695;28;19909;-53
2023/05/14 05:19:56;;;;;;;;;;;14.50;62.70;;;9.73;100.00;95345.88;5034282;28;19909;-52
2023/05/14 05:22:23;;;;;;;;;;;14.60;62.60;;;9.83;100.00;95349.63;5020190;28;19913;-51
2023/05/14 05:24:49;;;;;;;;;;;14.70;62.70;;;9.88;100.00;95344.31;5016988;28;19909;-57
2023/05/14 05:27:15;;;;;;;;;;;14.70;62.60;;;9.90;100.00;95345.66;5024362;28;19916;-57
2023/05/14 05:29:40;;;;;;;;;;;14.80;62.50;;;9.95;100.00;95342.19;5032700;28;19935;-57
2023/05/14 05:32:07;;;;;;;;;;;14.80;62.40;;;9.95;100.00;95339.50;5012563;28;19913;-52
2023/05/14 05:34:34;;;;;;;;;;;14.90;62.30;;;10.03;100.00;95348.81;5015527;28;19912;-53
2023/05/14 05:37:00;;;;;;;;;;;14.90;62.30;;;10.07;100.00;95344.56;5030566;28;19917;-53
2023/05/14 05:39:26;;;;;;;;;;;15.00;62.30;;;10.12;100.00;95345.38;5022234;28;19913;-54
2023/05/14 05:41:52;;;;;;;;;;;15.10;62.30;;;10.16;100.00;95340.31;5030282;28;20337;-52
2023/05/14 05:44:18;;;;;;;;;;;15.10;62.30;;;10.27;100.00;95335.78;5015516;28;20280;-51
2023/05/14 05:46:44;;;;;;;;;;;15.20;62.20;;;10.37;100.00;95344.59;5025980;28;19916;-52
2023/05/14 05:49:09;;;;;;;;;;;15.30;62.10;;;10.47;100.00;95340.31;5034116;28;19948;-55
2023/05/14 05:51:35;;;;;;;;;;;15.40;62.10;;;10.54;100.00;95341.63;5019186;28;19915;-52
2023/05/14 05:54:01;;;;;;;;;;;15.50;62.00;;;10.63;99.65;95339.22;5033625;28;20371;-54
2023/05/14 05:56:27;;;;;;;;;;;15.60;62.00;;;10.68;99.61;95341.03;5014587;28;19908;-55
2023/05/14 05:58:52;;;;;;;;;;;15.70;61.90;;;10.67;98.85;95342.13;5013171;28;19920;-56
2023/05/14 06:01:18;;;;;;;;;;;15.70;61.80;;;10.75;99.07;95342.38;5005902;28;19916;-53
2023/05/14 06:03:44;;;;;;;;;;;15.70;61.60;;;10.81;98.20;95346.63;5028680;28;19915;-53
2023/05/14 06:06:09;;;;;;;;;;;15.80;61.60;;;10.80;97.85;95345.00;5016514;28;20364;-54
2023/05/14 06:08:35;;;;;;;;;;;15.80;61.50;;;10.83;97.83;95349.00;5029555;28;19988;-54
2023/05/14 06:11:01;;;;;;;;;;;15.80;61.50;;;10.87;97.74;95350.03;5024524;28;19909;-54
2023/05/14 06:13:26;;;;;;;;;;;15.80;61.50;;;10.88;97.63;95351.66;5033339;28;19913;-57
2023/05/14 06:15:52;;;;;;;;;;;15.80;61.40;;;10.85;98.00;95344.22;5012609;28;19945;-57
2023/05/14 06:18:18;;;;;;;;;;;15.80;61.30;;;10.87;98.63;95347.38;5033154;28;19970;-57
2023/05/14 06:20:44;;;;;;;;;;;15.80;61.30;;;10.93;99.47;95343.63;5029228;28;20248;-57
2023/05/14 06:23:11;;;;;;;;;;;15.80;61.20;;;10.93;100.00;95348.97;5011375;28;19916;-58
2023/05/14 06:25:36;;;;;;;;;;;15.90;61.20;;;11.01;100.00;95347.63;5032880;28;20003;-55
2023/05/14 06:28:02;;;;;;;;;;;15.90;61.10;;;11.03;100.00;95345.44;5025737;28;20453;-57
2023/05/14 06:30:28;;;;;;;;;;;16.10;61.10;;;11.16;100.00;95342.22;5022837;28;19936;-57
2023/05/14 06:32:54;;;;;;;;;;;16.10;61.00;;;11.23;100.00;95347.25;5023578;28;19916;-57
2023/05/14 06:35:19;;;;;;;;;;;16.30;60.90;;;11.31;100.00;95342.16;5017365;28;20334;-54
2023/05/14 06:37:45;;;;;;;;;;;16.40;60.90;;;11.44;100.00;95340.75;5032767;28;19912;-56
2023/05/14 06:40:14;;;;;;;;;;;16.60;60.90;;;11.55;100.00;95346.81;5008065;28;19909;-51
2023/05/14 06:42:40;;;;;;;;;;;16.80;60.80;;;11.68;100.00;95345.41;5023916;28;20039;-51
2023/05/14 06:45:07;;;;;;;;;;;16.90;60.60;;;11.74;100.00;95342.41;5022536;28;20375;-56
2023/05/14 06:47:33;;;;;;;;;;;17.10;60.40;;;11.72;99.70;95346.44;5032986;28;20329;-52
2023/05/14 06:50:00;;;;;;;;;;;17.20;60.10;;;11.60;99.28;95338.00;5016121;28;19912;-51
2023/05/14 06:52:26;;;;;;;;;;;17.30;59.80;;;11.54;98.89;95347.91;5020401;28;20007;-51
2023/05/14 06:54:52;;;;;;;;;;;17.30;59.80;;;11.41;100.00;95351.97;5032079;28;20348;-52
2023/05/14 06:57:17;;;;;;;;;;;17.10;59.70;;;11.37;99.87;95353.56;5023346;28;19909;-52
2023/05/14 06:59:43;;;;;;;;;;;17.00;59.80;;;11.44;100.00;95347.94;5008709;28;20394;-51
2023/05/14 07:02:09;;;;;;;;;;;16.80;60.60;;;11.49;100.00;95355.91;5004713;28;19999;-55
2023/05/14 07:04:35;;;;;;;;;;;16.80;60.00;;;11.51;100.00;95362.56;5021912;28;19963;-55
2023/05/14 07:07:00;;;;;;;;;;;16.70;60.00;;;11.52;100.00;95353.50;5021806;28;19909;-55
2023/05/14 07:09:26;;;;;;;;;;;16.70;60.20;;;11.47;100.00;95350.03;5021186;28;19952;-52
2023/05/14 07:11:52;;;;;;;;;;;16.80;60.20;;;11.46;100.00;95351.13;5032293;28;19917;-56
2023/05/14 07:14:18;;;;;;;;;;;16.80;60.20;;;11.47;100.00;95350.88;5026707;28;20367;-53
2023/05/14 07:16:45;;;;;;;;;;;16.90;60.20;;;11.60;100.00;95344.13;5018883;28;19950;-50
2023/05/14 07:19:11;;;;;;;;;;;17.10;60.10;;;11.78;100.00;95348.81;5028884;28;20333;-50
2023/05/14 07:21:37;;;;;;;;;;;17.30;60.00;;;11.94;99.39;95349.53;5012383;28;20005;-54
2023/05/14 07:24:03;;;;;;;;;;;17.50;59.80;;;12.02;99.01;95350.78;5025019;28;20403;-55
2023/05/14 07:26:30;;;;;;;;;;;17.70;59.70;;;12.09;97.40;95347.81;5031594;28;19974;-54
2023/05/14 07:28:56;;;;;;;;;;;17.90;59.50;;;12.21;96.66;95346.34;5024747;28;19917;-55
2023/05/14 07:31:22;;;;;;;;;;;17.90;60.00;;;12.27;95.56;95342.56;5021765;28;19913;-52
2023/05/14 07:33:47;;;;;;;;;;;18.00;59.40;;;12.32;95.16;95333.72;5017085;28;19921;-55
2023/05/14 07:36:13;;;;;;;;;;;18.00;59.30;;;12.39;94.60;95341.41;5031691;28;20422;-53
2023/05/14 07:38:39;;;;;;;;;;;18.00;59.40;;;12.43;94.22;95332.53;4993161;28;19919;-55
2023/05/14 07:41:05;;;;;;;;;;;17.90;59.40;;;12.48;94.89;95337.84;5005044;28;19909;-51
2023/05/14 07:43:31;;;;;;;;;;;17.90;59.40;;;12.53;95.58;95341.53;5027518;28;20373;-54
2023/05/14 07:45:57;;;;;;;;;;;17.90;59.40;;;12.56;94.75;95340.97;5027043;28;19909;-53
2023/05/14 07:48:22;;;;;;;;;;;17.90;59.40;;;12.51;95.73;95339.16;5015502;28;19909;-54
2023/05/14 07:50:49;;;;;;;;;;;17.90;59.40;;;12.37;96.47;95336.34;5022284;28;19909;-50
2023/05/14 07:53:14;;;;;;;;;;;17.90;59.30;;;12.39;96.11;95342.19;5011579;28;19942;-53
2023/05/14 07:55:41;;;;;;;;;;;17.90;59.30;;;12.36;94.98;95333.97;5012826;28;20288;-51
2023/05/14 07:58:07;;;;;;;;;;;17.90;59.20;;;12.28;96.22;95332.69;5004559;28;20437;-51
2023/05/14 08:00:33;;;;;;;;;;;18.00;59.10;;;12.29;95.88;95333.50;5029233;28;20283;-52
2023/05/14 08:02:58;;;;;;;;;;;18.00;59.00;;;12.40;97.14;95335.78;5022594;28;20300;-52
2023/05/14 08:05:25;;;;;;;;;;;18.20;58.80;;;12.58;96.23;95330.81;5031298;28;19915;-53
2023/05/14 08:07:51;;;;;;;;;;;18.40;58.70;;;12.67;96.07;95337.91;5009648;28;20284;-54
2023/05/14 08:10:16;;;;;;;;;;;18.60;58.60;;;12.63;95.63;95333.41;5010239;28;19916;-57
2023/05/14 08:12:42;;;;;;;;;;;18.80;58.40;;;12.72;94.84;95331.72;5031666;28;19915;-55
2023/05/14 08:15:09;;;;;;;;;;;18.90;58.30;;;12.77;93.89;95331.66;5024558;28;19909;-56
2023/05/14 08:17:34;;;;;;;;;;;19.10;58.10;;;12.87;91.74;95336.09;5025447;28;19908;-57
2023/05/14 08:20:01;;;;;;;;;;;19.40;57.90;;;13.14;91.17;95332.84;5031523;28;19919;-57
2023/05/14 08:22:27;;;;;;;;;;;19.50;57.70;;;13.38;90.06;95335.50;5010926;28;19913;-57
2023/05/14 08:24:52;;;;;;;;;;;19.80;57.60;;;13.46;87.00;95324.16;5007415;28;20322;-56
2023/05/14 08:27:18;;;;;;;;;;;20.20;57.40;;;13.68;86.48;95322.81;5017187;28;19966;-58
2023/05/14 08:29:44;;;;;;;;;;;20.40;57.00;;;13.92;83.88;95320.03;5010885;28;19919;-57
2023/05/14 08:32:10;;;;;;;;;;;20.70;56.80;;;14.24;81.40;95317.34;5011654;28;19913;-52
2023/05/14 08:34:35;;;;;;;;;;;20.80;56.60;;;14.28;82.17;95322.94;5000470;28;19913;-58
2023/05/14 08:37:01;;;;;;;;;;;21.00;56.50;;;14.48;80.61;95325.25;5011438;28;20026;-57
2023/05/14 08:39:27;;;;;;;;;;;21.20;56.60;;;14.69;78.37;95314.97;5011462;28;20260;-52
2023/05/14 08:41:56;;;;;;;;;;;21.40;56.20;;;14.66;78.37;95322.81;5015571;28;19909;-54
2023/05/14 08:44:57;;;;;;;;;;;21.60;55.80;;;14.99;78.53;95326.22;4985394;28;20283;-54
2023/05/14 08:47:24;;;;;;;;;;;22.00;55.50;;;15.15;76.37;95319.47;4999470;28;19916;-55
2023/05/14 08:49:57;;;;;;;;;;;22.30;55.00;;;15.36;75.96;95311.78;5018223;28;20267;-56
2023/05/14 08:52:23;;;;;;;;;;;22.60;54.70;;;15.41;75.05;95318.94;5011586;28;20300;-55
2023/05/14 08:54:52;;;;;;;;;;;22.80;54.40;;;15.64;75.12;95323.25;5022565;28;19928;-54
2023/05/14 08:57:23;;;;;;;;;;;23.00;54.20;;;15.82;72.44;95318.84;5022244;28;20043;-53
2023/05/14 08:59:50;;;;;;;;;;;23.20;54.00;;;15.94;71.64;95324.47;5027992;28;19955;-56
2023/05/14 09:02:23;;;;;;;;;;;23.30;53.80;;;15.89;71.52;95305.81;5034468;28;19962;-58
2023/05/14 09:04:56;;;;;;;;;;;23.40;53.60;;;15.84;71.44;95305.13;5008597;28;19909;-53
2023/05/14 09:07:22;;;;;;;;;;;23.50;53.40;;;15.83;71.08;95307.03;5019963;28;20012;-58
2023/05/14 09:09:50;;;;;;;;;;;23.50;53.30;;;15.95;72.07;95306.44;5012495;28;20286;-57
2023/05/14 09:12:15;;;;;;;;;;;23.50;53.20;;;16.05;76.29;95308.91;5012694;28;19980;-56
2023/05/14 09:14:41;;;;;;;;;;;23.40;53.10;;;15.95;75.82;95306.44;5014571;28;20003;-55
2023/05/14 09:17:07;;;;;;;;;;;23.20;53.10;;;15.70;83.69;95297.13;5017451;28;19909;-55
2023/05/14 09:19:33;;;;;;;;;;;23.00;53.00;;;15.57;81.01;95297.91;5029634;28;19909;-57
2023/05/14 09:21:59;;;;;;;;;;;22.80;52.90;;;15.63;82.86;95300.16;5015096;28;19913;-55
2023/05/14 09:24:30;;;;;;;;;;;22.60;52.90;;;15.53;83.87;95295.03;5017770;28;19916;-54
2023/05/14 09:26:57;;;;;;;;;;;22.50;53.10;;;15.14;83.23;95292.94;5021931;28;20020;-55
2023/05/14 09:29:27;;;;;;;;;;;22.30;53.20;;;14.97;82.69;95305.06;5017599;28;19963;-57
2023/05/14 09:31:54;;;;;;;;;;;22.00;53.20;;;14.76;85.46;95303.84;5030855;28;19912;-56
2023/05/14 09:34:33;;;;;;;;;;;21.80;53.20;;;14.24;86.38;95298.59;5017664;28;19912;-55
2023/05/14 09:37:02;;;;;;;;;;;21.50;53.40;;;13.95;88.34;95301.50;5034031;28;19962;-54
2023/05/14 09:39:29;;;;;;;;;;;21.00;53.50;;;13.68;90.18;95302.19;5017037;28;19913;-57
2023/05/14 09:41:56;;;;;;;;;;;20.70;53.70;;;13.47;91.65;95304.34;5017762;28;19913;-52
2023/05/14 09:44:23;;;;;;;;;;;20.40;53.90;;;13.29;93.26;95305.16;5034072;28;19916;-56
2023/05/14 09:46:51;;;;;;;;;;;20.10;54.10;;;13.15;94.42;95299.66;5028683;28;20007;-54
2023/05/14 09:49:17;;;;;;;;;;;19.90;54.30;;;13.17;95.83;95298.31;5034179;28;20407;-50
2023/05/14 09:51:42;;;;;;;;;;;19.70;54.60;;;13.15;95.94;95291.66;5012035;28;19916;-56
2023/05/14 09:54:09;;;;;;;;;;;19.60;54.80;;;13.26;98.21;95293.16;5027331;28;19920;-56
2023/05/14 09:56:36;;;;;;;;;;;19.50;55.10;;;13.28;97.59;95296.31;5031054;28;19963;-55
2023/05/14 09:59:03;;;;;;;;;;;19.40;55.30;;;13.41;98.39;95287.59;5020765;28;19908;-55
2023/05/14 10:01:31;;;;;;;;;;;19.50;55.50;;;13.39;97.75;95288.97;5033629;28;19940;-52
2023/05/14 10:03:58;;;;;;;;;;;19.60;55.50;;;13.39;95.82;95283.59;5012707;28;20295;-54
2023/05/14 10:06:37;;;;;;;;;;;19.70;55.40;;;13.49;95.46;95280.00;5023904;28;19909;-53
2023/05/14 10:09:11;;;;;;;;;;;19.90;55.30;;;13.71;93.52;95276.72;5023201;28;19909;-55
2023/05/14 10:11:44;;;;;;;;;;;20.20;55.30;;;13.92;90.99;95274.53;5003248;28;19935;-50
2023/05/14 10:14:25;;;;;;;;;;;20.50;55.00;;;14.15;92.13;95270.91;5033674;28;20030;-53
2023/05/14 10:16:52;;;;;;;;;;;21.00;54.80;;;14.32;88.17;95271.16;5011428;28;20332;-51
2023/05/14 10:19:23;;;;;;;;;;;21.30;54.50;;;14.48;85.46;95276.25;5025839;28;19909;-52
2023/05/14 10:21:59;;;;;;;;;;;21.60;54.20;;;14.99;87.02;95276.06;5002727;28;20371;-53
2023/05/14 10:24:27;;;;;;;;;;;22.00;54.00;;;15.62;85.38;95273.66;5009796;28;19967;-51
2023/05/14 10:26:53;;;;;;;;;;;22.40;53.90;;;16.26;83.34;95270.78;5009349;28;20387;-53
2023/05/14 10:29:18;;;;;;;;;;;23.10;53.70;;;16.60;76.90;95276.31;5024883;28;19959;-53
2023/05/14 10:31:53;;;;;;;;;;;23.60;53.40;;;16.60;74.18;95270.16;5032359;28;19948;-50
2023/05/14 10:34:42;;;;;;;;;;;23.90;53.00;;;16.84;72.56;95275.19;5028010;28;19913;-55
2023/05/14 10:37:14;;;;;;;;;;;24.30;52.50;;;16.92;70.14;95270.94;5033102;28;19999;-52
2023/05/14 10:40:07;;;;;;;;;;;24.80;51.80;;;17.15;67.90;95267.06;5016028;28;19915;-53
2023/05/14 10:42:39;;;;;;;;;;;25.10;51.30;;;17.30;67.35;95266.59;5025511;28;20011;-52
2023/05/14 10:45:10;;;;;;;;;;;25.20;51.40;;;17.17;67.63;95261.34;5022423;28;19916;-55
2023/05/14 10:47:47;;;;;;;;;;;25.40;50.60;;;17.69;71.26;95266.78;5021252;28;19958;-51
2023/05/14 10:50:16;;;;;;;;;;;25.50;50.50;;;18.07;65.52;95263.47;5032177;28;20406;-53
2023/05/14 10:52:44;;;;;;;;;;;25.70;50.40;;;18.32;65.77;95256.44;5005834;28;19920;-54
2023/05/14 10:55:15;;;;;;;;;;;25.90;50.20;;;18.14;63.35;95261.06;5032411;28;20357;-53
2023/05/14 10:57:45;;;;;;;;;;;26.00;49.90;;;17.87;62.69;95256.84;5010513;28;19916;-51
2023/05/14 11:00:13;;;;;;;;;;;26.00;49.50;;;17.28;64.85;95251.88;5001719;28;19954;-55
2023/05/14 11:02:41;;;;;;;;;;;25.90;49.10;;;17.43;62.85;95261.41;5028807;28;19915;-52
2023/05/14 11:05:18;;;;;;;;;;;25.80;48.90;;;17.63;62.67;95241.13;5020294;28;19908;-49
2023/05/14 11:07:49;;;;;;;;;;;25.90;48.60;;;17.56;64.83;95245.09;5032567;28;19954;-55
2023/05/14 11:10:20;;;;;;;;;;;26.00;48.50;;;17.75;63.68;95238.59;5003597;28;20394;-52
2023/05/14 11:12:52;;;;;;;;;;;26.00;48.40;;;17.78;63.60;95243.38;5032430;28;19909;-53
2023/05/14 11:15:22;;;;;;;;;;;26.10;48.30;;;17.80;64.40;95243.84;5028307;28;19908;-54
2023/05/14 11:17:50;;;;;;;;;;;26.00;48.30;;;17.40;69.82;95248.56;5032347;28;19962;-51
2023/05/14 11:20:17;;;;;;;;;;;25.70;48.30;;;17.03;72.99;95248.03;5032002;28;19913;-55